Time;durP1;ratioP1;P1;durP2;ratioP2;P2;SDS_P1;SDS_P2;PMS_P1;PMS_P2;Temp;Humidity;BMP_temperature;BMP_pressure;BME280_temperature;BME280_humidity;BME280_pressure;Samples;Min_cycle;Max_cycle;Signal;HPM_P1;HPM_P2
2023/10/23 00:02:04;;;;;;;8.20;1.90;;;8.00;99.90;;;;;;5018204;28;20041;-66
2023/10/23 00:04:30;;;;;;;3.42;1.10;;;8.00;99.90;;;;;;5046343;28;20060;-65
2023/10/23 00:06:56;;;;;;;2.80;1.67;;;8.00;99.90;;;;;;5025012;28;20049;-65
2023/10/23 00:09:21;;;;;;;5.07;1.55;;;8.00;99.90;;;;;;5010890;28;20571;-65
2023/10/23 00:11:47;;;;;;;3.25;1.38;;;7.90;99.90;;;;;;5039294;28;20048;-65
2023/10/23 00:14:13;;;;;;;5.05;1.60;;;7.90;99.90;;;;;;5048802;28;20130;-65
2023/10/23 00:16:39;;;;;;;2.45;1.65;;;7.90;99.90;;;;;;5032702;28;20044;-65
2023/10/23 00:19:04;;;;;;;1.60;1.50;;;7.80;99.90;;;;;;5009714;28;20491;-65
2023/10/23 00:21:30;;;;;;;1.77;1.58;;;7.80;99.90;;;;;;5046772;28;20044;-64
2023/10/23 00:23:56;;;;;;;5.47;2.05;;;7.80;99.90;;;;;;5031782;28;20114;-64
2023/10/23 00:26:22;;;;;;;1.60;1.50;;;7.80;99.90;;;;;;5049333;28;20056;-65
2023/10/23 00:28:47;;;;;;;3.40;2.15;;;7.70;99.90;;;;;;5050479;28;20123;-65
2023/10/23 00:31:13;;;;;;;2.17;1.77;;;7.70;99.90;;;;;;5031739;28;20522;-65
2023/10/23 00:33:39;;;;;;;3.08;1.83;;;7.80;99.90;;;;;;5036717;28;20033;-65
2023/10/23 00:36:04;;;;;;;2.92;1.77;;;7.80;99.90;;;;;;5036952;28;20048;-65
2023/10/23 00:38:30;;;;;;;4.20;1.58;;;7.80;99.90;;;;;;5045458;28;20044;-65
2023/10/23 00:40:56;;;;;;;3.72;1.88;;;7.80;99.90;;;;;;5030846;28;20090;-65
2023/10/23 00:43:24;;;;;;;4.28;1.67;;;7.70;99.90;;;;;;5031609;28;20053;-65
2023/10/23 00:45:54;;;;;;;2.80;1.90;;;7.70;99.90;;;;;;5010660;28;20042;-65
2023/10/23 00:48:22;;;;;;;1.98;1.80;;;7.70;99.90;;;;;;5037434;28;20049;-65
2023/10/23 00:50:58;;;;;;;3.78;1.92;;;7.70;99.90;;;;;;5050127;28;20044;-65
2023/10/23 00:53:27;;;;;;;6.13;1.90;;;7.70;99.90;;;;;;5034019;28;20525;-65
2023/10/23 00:55:55;;;;;;;2.60;1.65;;;7.70;99.90;;;;;;5020700;28;20070;-65
2023/10/23 00:58:23;;;;;;;5.30;1.90;;;7.70;99.90;;;;;;5023362;28;20080;-65
2023/10/23 01:00:49;;;;;;;5.40;1.90;;;7.70;99.90;;;;;;5030314;28;20690;-65
2023/10/23 01:03:14;;;;;;;3.30;2.00;;;7.60;99.90;;;;;;5021385;28;20172;-65
2023/10/23 01:05:40;;;;;;;4.03;2.03;;;7.70;99.90;;;;;;5033860;28;20059;-65
2023/10/23 01:08:06;;;;;;;3.95;1.95;;;7.70;99.90;;;;;;5049717;28;20048;-65
2023/10/23 01:10:35;;;;;;;3.97;1.70;;;7.60;99.90;;;;;;5032694;28;20145;-65
2023/10/23 01:13:06;;;;;;;3.50;2.30;;;7.70;99.90;;;;;;5049540;28;20033;-65
2023/10/23 01:15:32;;;;;;;4.10;1.77;;;7.70;99.90;;;;;;5021737;28;20051;-65
2023/10/23 01:17:59;;;;;;;9.70;2.08;;;7.70;99.90;;;;;;5034730;28;20513;-65
2023/10/23 01:20:27;;;;;;;6.63;1.83;;;7.70;99.90;;;;;;5048920;28;20445;-65
2023/10/23 01:23:00;;;;;;;2.10;1.90;;;7.60;99.90;;;;;;5048146;28;20032;-65
2023/10/23 01:25:27;;;;;;;4.40;2.10;;;7.60;99.90;;;;;;5044008;28;20563;-65
2023/10/23 01:27:54;;;;;;;3.08;2.10;;;7.60;99.90;;;;;;5044795;28;20057;-65
2023/10/23 01:30:20;;;;;;;1.80;1.70;;;7.60;99.90;;;;;;5049008;28;20554;-65
2023/10/23 01:32:46;;;;;;;2.63;2.00;;;7.60;99.90;;;;;;5021148;28;20133;-65
2023/10/23 01:35:12;;;;;;;3.50;2.13;;;7.50;99.90;;;;;;5028377;28;20125;-65
2023/10/23 01:37:38;;;;;;;3.88;1.92;;;7.50;99.90;;;;;;5022008;28;20487;-65
2023/10/23 01:40:04;;;;;;;2.22;1.92;;;7.50;99.90;;;;;;5039544;28;20076;-65
2023/10/23 01:42:31;;;;;;;3.00;1.83;;;7.40;99.90;;;;;;5025620;28;20046;-65
2023/10/23 01:44:57;;;;;;;1.95;1.73;;;7.30;99.90;;;;;;5086569;23;20049;-65
2023/10/23 01:47:24;;;;;;;6.22;1.92;;;7.30;99.90;;;;;;5068660;28;20055;-65
2023/10/23 01:49:50;;;;;;;2.55;1.98;;;7.20;99.90;;;;;;5049849;28;20087;-65
2023/10/23 01:52:16;;;;;;;3.83;1.85;;;7.20;99.90;;;;;;5051258;28;20083;-65
2023/10/23 01:54:43;;;;;;;4.88;2.33;;;7.20;99.90;;;;;;5051022;28;20048;-65
2023/10/23 01:57:12;;;;;;;4.32;1.95;;;7.20;99.90;;;;;;5069991;28;20048;-65
2023/10/23 01:59:39;;;;;;;2.13;2.03;;;7.10;99.90;;;;;;5046024;28;20502;-65
2023/10/23 02:02:05;;;;;;;2.15;1.90;;;7.20;99.90;;;;;;5028792;28;20448;-65
2023/10/23 02:04:31;;;;;;;5.97;1.80;;;7.10;99.90;;;;;;5068107;28;20047;-65
2023/10/23 02:06:57;;;;;;;3.53;2.17;;;7.10;99.90;;;;;;5064131;28;20044;-65
2023/10/23 02:09:23;;;;;;;3.97;2.10;;;7.10;99.90;;;;;;5063234;28;20057;-65
2023/10/23 02:11:49;;;;;;;4.78;2.28;;;7.00;99.90;;;;;;5060443;28;20149;-65
2023/10/23 02:14:15;;;;;;;4.85;1.88;;;7.00;99.90;;;;;;5068942;28;20055;-65
2023/10/23 02:16:40;;;;;;;3.85;2.10;;;7.00;99.90;;;;;;5063960;28;20029;-65
2023/10/23 02:19:06;;;;;;;5.07;1.77;;;7.00;99.90;;;;;;5064272;28;20059;-65
2023/10/23 02:21:32;;;;;;;5.07;2.17;;;6.90;99.90;;;;;;5067635;28;20051;-65
2023/10/23 02:23:58;;;;;;;3.08;2.25;;;7.00;99.90;;;;;;5051597;28;20555;-65
2023/10/23 02:26:28;;;;;;;4.50;2.33;;;6.90;99.90;;;;;;5049937;28;20424;-65
2023/10/23 02:28:55;;;;;;;3.03;1.88;;;7.00;99.90;;;;;;5050400;28;20048;-65
2023/10/23 02:31:21;;;;;;;2.10;1.90;;;6.90;99.90;;;;;;5045113;28;20044;-65
2023/10/23 02:33:46;;;;;;;2.97;2.05;;;6.90;99.90;;;;;;5048251;28;20553;-65
2023/10/23 02:36:12;;;;;;;6.18;2.58;;;6.90;99.90;;;;;;5064758;28;20171;-64
2023/10/23 02:38:38;;;;;;;4.18;2.60;;;6.90;99.90;;;;;;5066838;28;20036;-65
2023/10/23 02:41:04;;;;;;;2.65;2.22;;;6.80;99.90;;;;;;5069167;28;20053;-65
2023/10/23 02:43:29;;;;;;;4.47;2.30;;;6.80;99.90;;;;;;5049061;28;20467;-65
2023/10/23 02:46:00;;;;;;;4.50;2.45;;;6.70;99.90;;;;;;5067874;28;20052;-65
2023/10/23 02:48:26;;;;;;;2.75;2.00;;;6.70;99.90;;;;;;5066431;28;20469;-65
2023/10/23 02:50:55;;;;;;;4.38;2.40;;;6.70;99.90;;;;;;5066144;28;20078;-65
2023/10/23 02:53:21;;;;;;;3.95;2.38;;;6.60;99.90;;;;;;5032863;28;20082;-65
2023/10/23 02:55:50;;;;;;;2.58;2.20;;;6.70;99.90;;;;;;5065976;28;20040;-65
2023/10/23 02:58:17;;;;;;;2.30;2.03;;;6.70;99.90;;;;;;5066543;28;20501;-65
2023/10/23 03:00:43;;;;;;;2.15;2.05;;;6.60;99.90;;;;;;5047863;28;20036;-65
2023/10/23 03:03:10;;;;;;;5.30;2.53;;;6.60;99.90;;;;;;5029526;28;20055;-65
2023/10/23 03:05:36;;;;;;;8.93;3.17;;;6.70;99.90;;;;;;5065884;28;20383;-65
2023/10/23 03:08:02;;;;;;;4.50;3.20;;;6.70;99.90;;;;;;5048746;28;20424;-65
2023/10/23 03:10:29;;;;;;;6.55;2.97;;;6.70;99.90;;;;;;5034760;28;20051;-65
2023/10/23 03:12:54;;;;;;;5.07;2.92;;;6.70;99.90;;;;;;5047705;28;20070;-65
2023/10/23 03:15:20;;;;;;;8.13;3.10;;;6.70;99.90;;;;;;5057002;28;20045;-65
2023/10/23 03:17:46;;;;;;;6.13;3.42;;;6.60;99.90;;;;;;5045682;28;20069;-65
2023/10/23 03:20:12;;;;;;;5.65;3.55;;;6.70;99.90;;;;;;5067134;28;20485;-64
2023/10/23 03:22:38;;;;;;;4.75;3.58;;;6.70;99.90;;;;;;5051891;28;20033;-65
2023/10/23 03:25:05;;;;;;;3.28;2.97;;;6.70;99.90;;;;;;5067038;28;20079;-64
2023/10/23 03:27:32;;;;;;;4.25;3.13;;;6.80;99.90;;;;;;5052779;28;20395;-64
2023/10/23 03:30:04;;;;;;;6.75;3.10;;;6.70;99.90;;;;;;5062144;28;20114;-65
2023/10/23 03:32:29;;;;;;;2.88;2.60;;;6.70;99.90;;;;;;5060565;28;20115;-65
2023/10/23 03:34:57;;;;;;;4.00;2.72;;;6.80;99.90;;;;;;5064966;28;20120;-65
2023/10/23 03:37:23;;;;;;;5.13;2.90;;;6.70;99.90;;;;;;5067185;28;20509;-65
2023/10/23 03:39:49;;;;;;;6.18;2.58;;;6.60;99.90;;;;;;5065642;28;20040;-65
2023/10/23 03:42:15;;;;;;;3.53;2.72;;;6.70;99.90;;;;;;5066192;28;20048;-65
2023/10/23 03:44:41;;;;;;;2.78;2.58;;;6.60;99.90;;;;;;5038148;28;20060;-65
2023/10/23 03:47:06;;;;;;;10.07;2.90;;;6.60;99.90;;;;;;5070240;28;20041;-65
2023/10/23 03:49:32;;;;;;;3.15;2.90;;;6.60;99.90;;;;;;5057398;28;20623;-65
2023/10/23 03:51:58;;;;;;;4.40;2.80;;;6.60;99.90;;;;;;5046043;28;20052;-65
2023/10/23 03:54:23;;;;;;;3.10;2.85;;;6.60;99.90;;;;;;5071255;28;20127;-65
2023/10/23 03:56:49;;;;;;;4.72;2.55;;;6.60;99.90;;;;;;5069502;28;20051;-64
2023/10/23 03:59:15;;;;;;;3.60;2.90;;;6.60;99.90;;;;;;5070825;28;20040;-65
2023/10/23 04:01:40;;;;;;;3.33;2.70;;;6.50;99.90;;;;;;5060256;28;20045;-65
2023/10/23 04:04:08;;;;;;;6.55;3.03;;;6.50;99.90;;;;;;5064579;28;20057;-65
2023/10/23 04:06:34;;;;;;;4.00;3.05;;;6.50;99.90;;;;;;5064359;28;20051;-65
2023/10/23 04:08:59;;;;;;;3.03;2.53;;;6.40;99.90;;;;;;5053167;28;20029;-65
2023/10/23 04:11:26;;;;;;;3.55;3.25;;;6.40;99.90;;;;;;5052953;28;20394;-65
2023/10/23 04:13:52;;;;;;;3.58;2.90;;;6.50;99.90;;;;;;5062587;28;20052;-65
2023/10/23 04:16:17;;;;;;;4.68;2.95;;;6.40;99.90;;;;;;5070421;28;20043;-65
2023/10/23 04:18:43;;;;;;;3.85;2.70;;;6.50;99.90;;;;;;5051006;28;20390;-65
2023/10/23 04:21:11;;;;;;;5.60;2.92;;;6.50;99.90;;;;;;5070332;28;20053;-65
2023/10/23 04:23:38;;;;;;;4.20;3.42;;;6.40;99.90;;;;;;5051195;28;20052;-64
2023/10/23 04:26:05;;;;;;;3.33;3.00;;;6.40;99.90;;;;;;5068697;28;20115;-65
2023/10/23 04:28:31;;;;;;;3.83;3.13;;;6.40;99.90;;;;;;5059405;28;20056;-65
2023/10/23 04:30:57;;;;;;;4.68;3.10;;;6.40;99.90;;;;;;5067491;28;20070;-65
2023/10/23 04:33:24;;;;;;;3.80;3.30;;;6.40;99.90;;;;;;5069454;28;20158;-65
2023/10/23 04:35:51;;;;;;;7.20;3.00;;;6.30;99.90;;;;;;5068671;28;20469;-65
2023/10/23 04:38:17;;;;;;;3.72;2.58;;;6.40;99.90;;;;;;5070067;28;20072;-65
2023/10/23 04:40:44;;;;;;;6.03;3.08;;;6.30;99.90;;;;;;5069387;28;20084;-65
2023/10/23 04:43:13;;;;;;;4.05;2.40;;;6.30;99.90;;;;;;5063429;28;20033;-65
2023/10/23 04:45:39;;;;;;;3.42;2.90;;;6.20;99.90;;;;;;5069823;28;20060;-65
2023/10/23 04:48:06;;;;;;;4.90;3.08;;;6.30;99.90;;;;;;5049800;28;20052;-65
2023/10/23 04:50:35;;;;;;;6.95;3.40;;;6.20;99.90;;;;;;5070136;28;20398;-65
2023/10/23 04:53:02;;;;;;;3.20;2.45;;;6.10;99.90;;;;;;5049432;28;20142;-65
2023/10/23 04:55:34;;;;;;;3.00;2.72;;;6.10;99.90;;;;;;5038555;28;20048;-65
2023/10/23 04:58:01;;;;;;;3.85;2.58;;;6.20;99.90;;;;;;5062991;28;20111;-65
2023/10/23 05:00:27;;;;;;;2.58;2.38;;;6.10;99.90;;;;;;5065878;28;20040;-65
2023/10/23 05:02:53;;;;;;;2.30;2.10;;;6.10;99.90;;;;;;5033498;28;20513;-65
2023/10/23 05:05:19;;;;;;;7.80;2.60;;;6.10;99.90;;;;;;5058705;28;20033;-65
2023/10/23 05:07:45;;;;;;;4.70;2.97;;;5.90;99.90;;;;;;5060528;28;20045;-65
2023/10/23 05:10:11;;;;;;;3.28;2.67;;;5.90;99.90;;;;;;5047678;28;20502;-65
2023/10/23 05:12:37;;;;;;;3.78;2.17;;;5.80;99.90;;;;;;5066785;28;20044;-65
2023/10/23 05:15:03;;;;;;;2.72;2.53;;;5.80;99.90;;;;;;5049708;28;20118;-64
2023/10/23 05:17:29;;;;;;;7.82;2.53;;;5.80;99.90;;;;;;5049427;28;20131;-65
2023/10/23 05:19:55;;;;;;;4.25;2.67;;;5.80;99.90;;;;;;5033678;28;20140;-65
2023/10/23 05:22:21;;;;;;;7.47;2.80;;;5.70;99.90;;;;;;5061761;28;20117;-65
2023/10/23 05:24:47;;;;;;;10.60;2.72;;;5.70;99.90;;;;;;5063298;28;20059;-65
2023/10/23 05:27:20;;;;;;;2.97;2.47;;;5.70;99.90;;;;;;5066890;28;20548;-65
2023/10/23 05:29:46;;;;;;;2.40;2.20;;;5.70;99.90;;;;;;5068789;28;20044;-65
2023/10/23 05:32:12;;;;;;;2.85;1.48;;;5.70;99.90;;;;;;5065074;28;20048;-65
2023/10/23 05:34:37;;;;;;;24.67;2.38;;;5.70;99.90;;;;;;5068162;28;20054;-65
2023/10/23 05:37:03;;;;;;;82.43;3.25;;;5.60;99.90;;;;;;5046196;28;20041;-65
2023/10/23 05:39:29;;;;;;;18.77;1.83;;;5.50;99.90;;;;;;5032267;28;20048;-64
2023/10/23 05:41:55;;;;;;;48.15;2.30;;;5.50;99.90;;;;;;5062290;28;20492;-65
2023/10/23 05:44:21;;;;;;;11.32;1.70;;;5.50;99.90;;;;;;5030397;28;20056;-65
2023/10/23 05:46:46;;;;;;;11.30;1.98;;;5.40;99.90;;;;;;5066721;28;20040;-65
2023/10/23 05:49:12;;;;;;;42.72;1.77;;;5.40;99.90;;;;;;5067256;28;20088;-65
2023/10/23 05:51:38;;;;;;;23.52;1.88;;;5.50;99.90;;;;;;5059028;28;20463;-65
2023/10/23 05:54:03;;;;;;;13.50;2.13;;;5.50;99.90;;;;;;5067786;28;20036;-65
2023/10/23 05:56:30;;;;;;;2.15;2.00;;;5.50;99.90;;;;;;5067778;28;20503;-65
2023/10/23 05:58:55;;;;;;;1.98;1.88;;;5.40;99.90;;;;;;5040115;28;20088;-65
2023/10/23 06:01:21;;;;;;;2.30;2.15;;;5.40;99.90;;;;;;5046958;28;20061;-65
2023/10/23 06:03:47;;;;;;;2.53;2.40;;;5.40;99.90;;;;;;5037737;28;20415;-65
2023/10/23 06:06:13;;;;;;;2.35;2.13;;;5.40;99.90;;;;;;5064465;28;20048;-65
2023/10/23 06:08:39;;;;;;;2.40;2.28;;;5.40;99.90;;;;;;5065369;28;20159;-65
2023/10/23 06:11:09;;;;;;;2.00;1.90;;;5.30;99.90;;;;;;5052975;28;20051;-65
2023/10/23 06:13:34;;;;;;;3.05;2.00;;;5.30;99.90;;;;;;5067836;28;20101;-65
2023/10/23 06:16:04;;;;;;;4.00;2.55;;;5.30;99.90;;;;;;5067401;28;20044;-65
2023/10/23 06:18:34;;;;;;;1.77;1.67;;;5.30;99.90;;;;;;5066996;28;20598;-65
2023/10/23 06:21:03;;;;;;;1.80;1.70;;;5.30;99.90;;;;;;5048152;28;20048;-65
2023/10/23 06:23:39;;;;;;;11.68;1.88;;;5.30;99.90;;;;;;5048701;28;20059;-65
2023/10/23 06:26:06;;;;;;;12.30;1.92;;;5.20;99.90;;;;;;5064741;28;20056;-65
2023/10/23 06:28:32;;;;;;;17.63;2.10;;;5.30;99.90;;;;;;5032362;28;20524;-65
2023/10/23 06:31:06;;;;;;;37.17;2.10;;;5.30;99.90;;;;;;5064567;28;20592;-65
2023/10/23 06:33:32;;;;;;;55.97;2.47;;;5.30;99.90;;;;;;5043342;28;20083;-65
2023/10/23 06:35:58;;;;;;;22.08;2.33;;;5.30;99.90;;;;;;5066520;28;20041;-65
2023/10/23 06:38:24;;;;;;;72.53;2.80;;;5.20;99.90;;;;;;5067745;28;20040;-65
2023/10/23 06:40:50;;;;;;;13.25;2.00;;;5.20;99.90;;;;;;5066518;28;20044;-65
2023/10/23 06:43:16;;;;;;;2.10;2.00;;;5.20;99.90;;;;;;5066771;28;20056;-65
2023/10/23 06:45:42;;;;;;;3.33;2.15;;;5.20;99.90;;;;;;5056022;28;20463;-65
2023/10/23 06:48:08;;;;;;;2.10;2.00;;;5.20;99.90;;;;;;5062756;28;20037;-65
2023/10/23 06:50:34;;;;;;;2.92;2.45;;;5.20;99.90;;;;;;5067590;28;20047;-65
2023/10/23 06:53:00;;;;;;;3.28;2.63;;;5.30;99.90;;;;;;5066548;28;20149;-65
2023/10/23 06:55:27;;;;;;;12.82;2.78;;;5.40;99.90;;;;;;5063165;28;20041;-65
2023/10/23 06:57:54;;;;;;;2.28;2.08;;;5.40;99.90;;;;;;5031587;28;20515;-65
2023/10/23 07:00:20;;;;;;;3.75;2.30;;;5.50;99.90;;;;;;5014611;28;20491;-65
2023/10/23 07:02:49;;;;;;;4.13;2.15;;;5.60;99.90;;;;;;5031915;28;20422;-65
2023/10/23 07:05:15;;;;;;;3.22;2.10;;;5.60;99.90;;;;;;5048220;28;20153;-65
2023/10/23 07:07:41;;;;;;;2.35;2.25;;;5.70;99.90;;;;;;5039207;28;20477;-65
2023/10/23 07:10:07;;;;;;;3.25;2.60;;;5.80;99.90;;;;;;5028044;28;20056;-65
2023/10/23 07:12:33;;;;;;;3.20;2.58;;;5.80;99.90;;;;;;5050134;28;20548;-65
2023/10/23 07:14:58;;;;;;;3.90;2.60;;;5.90;99.90;;;;;;5024875;28;20057;-65
2023/10/23 07:17:24;;;;;;;8.30;2.63;;;5.90;99.90;;;;;;5057464;28;20890;-65
2023/10/23 07:19:51;;;;;;;3.13;2.70;;;6.10;99.90;;;;;;5046111;28;20041;-65
2023/10/23 07:22:17;;;;;;;7.35;3.13;;;6.20;99.90;;;;;;5032652;28;20068;-65
2023/10/23 07:24:43;;;;;;;5.82;3.03;;;6.30;99.90;;;;;;5033741;28;20037;-65
2023/10/23 07:27:14;;;;;;;4.88;3.22;;;6.30;99.90;;;;;;5037591;28;20048;-65
2023/10/23 07:29:40;;;;;;;7.32;3.30;;;6.50;99.90;;;;;;5056104;28;20475;-65
2023/10/23 07:32:06;;;;;;;4.57;3.08;;;6.70;99.90;;;;;;5050690;28;20045;-65
2023/10/23 07:34:32;;;;;;;5.82;3.60;;;6.80;99.90;;;;;;5050807;28;20053;-65
2023/10/23 07:36:58;;;;;;;5.95;3.15;;;6.90;99.90;;;;;;5032927;28;20475;-65
2023/10/23 07:39:24;;;;;;;6.93;3.70;;;7.10;99.90;;;;;;5058871;28;20055;-65
2023/10/23 07:41:50;;;;;;;4.15;3.10;;;7.20;99.90;;;;;;5028520;28;20037;-65
2023/10/23 07:44:16;;;;;;;4.10;3.40;;;7.30;99.90;;;;;;5046258;28;20080;-65
2023/10/23 07:46:43;;;;;;;3.97;3.50;;;7.50;99.90;;;;;;5058023;28;20087;-65
2023/10/23 07:49:10;;;;;;;5.35;3.95;;;7.60;99.90;;;;;;5024366;28;20060;-65
2023/10/23 07:51:36;;;;;;;6.90;3.80;;;7.80;99.90;;;;;;5050241;28;20055;-65
2023/10/23 07:54:03;;;;;;;8.75;4.10;;;7.90;99.90;;;;;;5049701;28;20052;-65
2023/10/23 07:56:28;;;;;;;5.82;4.18;;;8.00;99.90;;;;;;5046751;28;20037;-65
2023/10/23 07:58:54;;;;;;;4.28;3.88;;;8.20;99.90;;;;;;5028929;28;20509;-65
2023/10/23 08:01:20;;;;;;;6.40;4.10;;;8.20;99.90;;;;;;5012235;28;20072;-65
2023/10/23 08:03:46;;;;;;;6.80;4.18;;;8.30;99.90;;;;;;5035780;28;20044;-65
2023/10/23 08:06:12;;;;;;;5.38;4.75;;;8.40;99.90;;;;;;5060015;28;20435;-65
2023/10/23 08:08:39;;;;;;;5.25;4.35;;;8.50;99.90;;;;;;5042041;28;20048;-65
2023/10/23 08:11:07;;;;;;;5.90;4.85;;;8.60;99.90;;;;;;5031705;28;20226;-65
2023/10/23 08:13:33;;;;;;;7.80;4.80;;;8.70;99.90;;;;;;5066223;28;20146;-65
2023/10/23 08:15:59;;;;;;;7.55;5.32;;;8.80;99.90;;;;;;5047603;28;20409;-65
2023/10/23 08:18:25;;;;;;;8.15;5.78;;;8.90;99.90;;;;;;5048217;28;20040;-65
2023/10/23 08:20:50;;;;;;;17.48;5.35;;;9.00;99.90;;;;;;5030835;28;20048;-64
2023/10/23 08:23:16;;;;;;;6.15;5.32;;;9.10;99.90;;;;;;5031050;28;20490;-65
2023/10/23 08:25:44;;;;;;;12.25;6.65;;;9.10;99.90;;;;;;5066906;28;20076;-64
2023/10/23 08:28:10;;;;;;;10.27;5.88;;;9.30;99.90;;;;;;5065067;28;20460;-65
2023/10/23 08:30:36;;;;;;;15.35;6.57;;;9.30;99.90;;;;;;5066299;28;20045;-64
2023/10/23 08:33:03;;;;;;;9.80;6.13;;;9.40;99.90;;;;;;5054573;28;20423;-65
2023/10/23 08:35:29;;;;;;;8.95;6.30;;;9.40;99.90;;;;;;5070163;28;20049;-65
2023/10/23 08:37:55;;;;;;;9.20;6.13;;;9.40;99.90;;;;;;5068814;28;20059;-65
2023/10/23 08:40:22;;;;;;;17.00;5.50;;;9.50;99.90;;;;;;5068958;28;20087;-65
2023/10/23 08:42:48;;;;;;;10.93;6.63;;;9.60;99.90;;;;;;5069797;28;20048;-64
2023/10/23 08:45:17;;;;;;;11.60;6.78;;;9.70;99.90;;;;;;5054880;28;20619;-65
2023/10/23 08:47:43;;;;;;;11.30;6.72;;;9.70;99.90;;;;;;5052043;28;20084;-64
2023/10/23 08:50:10;;;;;;;11.40;7.25;;;9.70;99.90;;;;;;5068545;28;20075;-64
2023/10/23 08:52:49;;;;;;;12.30;7.57;;;9.70;99.90;;;;;;5045001;28;20520;-65
2023/10/23 08:55:15;;;;;;;12.10;7.40;;;9.80;99.90;;;;;;5050042;28;20040;-65
2023/10/23 08:57:53;;;;;;;13.23;7.70;;;9.80;99.90;;;;;;5058356;28;20136;-65
2023/10/23 09:00:23;;;;;;;13.48;7.35;;;9.90;99.90;;;;;;5013254;28;20124;-65
2023/10/23 09:02:50;;;;;;;13.18;8.70;;;10.00;99.90;;;;;;5046674;28;20402;-65
2023/10/23 09:05:15;;;;;;;14.73;8.30;;;10.10;99.90;;;;;;5031562;28;20052;-65
2023/10/23 09:07:41;;;;;;;10.82;7.30;;;10.10;99.90;;;;;;5036083;28;20053;-64
2023/10/23 09:10:07;;;;;;;17.80;9.45;;;10.20;99.90;;;;;;5036501;28;20036;-65
2023/10/23 09:12:34;;;;;;;16.90;8.80;;;10.30;99.90;;;;;;5037280;28;20132;-65
2023/10/23 09:15:13;;;;;;;17.98;9.18;;;10.40;99.90;;;;;;5048427;28;20124;-64
2023/10/23 09:17:40;;;;;;;16.63;9.40;;;10.50;99.90;;;;;;5049723;28;20060;-65
2023/10/23 09:20:18;;;;;;;18.65;9.40;;;10.60;99.90;;;;;;5049573;28;20076;-65
2023/10/23 09:22:48;;;;;;;13.13;8.45;;;10.70;99.90;;;;;;5055747;28;20138;-65
2023/10/23 09:25:21;;;;;;;14.77;8.90;;;10.80;99.90;;;;;;5045631;28;20546;-65
2023/10/23 09:27:48;;;;;;;13.75;9.02;;;10.90;99.90;;;;;;5045128;28;20090;-65
2023/10/23 09:30:15;;;;;;;18.08;8.40;;;11.00;99.90;;;;;;5056260;28;20048;-64
2023/10/23 09:32:41;;;;;;;13.80;8.68;;;11.10;99.90;;;;;;5041538;28;20044;-64
2023/10/23 09:35:10;;;;;;;11.70;8.25;;;11.30;99.90;;;;;;5059170;28;20037;-64
2023/10/23 09:37:36;;;;;;;15.48;8.50;;;11.40;99.90;;;;;;5056457;28;20482;-65
2023/10/23 09:40:08;;;;;;;12.65;8.38;;;11.50;99.90;;;;;;5063475;28;20039;-65
2023/10/23 09:42:34;;;;;;;17.80;8.27;;;11.50;99.90;;;;;;5065977;28;20044;-64
2023/10/23 09:45:02;;;;;;;13.48;8.82;;;11.70;99.90;;;;;;5062526;28;20093;-64
2023/10/23 09:47:32;;;;;;;12.65;8.68;;;11.80;99.90;;;;;;5062446;28;20075;-64
2023/10/23 09:49:59;;;;;;;13.10;7.78;;;11.90;99.90;;;;;;5063345;28;20037;-65
2023/10/23 09:52:26;;;;;;;9.60;7.38;;;11.90;99.90;;;;;;5039708;28;20060;-64
2023/10/23 09:55:15;;;;;;;10.00;6.47;;;12.00;99.90;;;;;;5051417;28;20528;-64
2023/10/23 09:57:45;;;;;;;13.57;6.85;;;12.10;99.90;;;;;;5049640;28;20483;-64
2023/10/23 10:00:15;;;;;;;13.38;6.85;;;12.20;99.90;;;;;;5022065;28;20051;-65
2023/10/23 10:02:52;;;;;;;10.70;6.47;;;12.30;99.90;;;;;;5046955;28;20402;-65
2023/10/23 10:05:58;;;;;;;15.77;6.78;;;12.30;99.90;;;;;;5048743;28;20040;-65
2023/10/23 10:08:26;;;;;;;11.70;6.35;;;12.30;99.90;;;;;;5053804;28;20060;-65
2023/10/23 10:10:53;;;;;;;9.20;6.68;;;12.30;99.90;;;;;;5060748;28;20510;-65
2023/10/23 10:13:20;;;;;;;9.65;6.82;;;12.40;99.90;;;;;;5066018;28;20047;-65
2023/10/23 10:15:48;;;;;;;9.10;6.18;;;12.50;99.90;;;;;;5064873;28;20056;-65
2023/10/23 10:18:16;;;;;;;10.38;5.78;;;12.50;99.90;;;;;;5041733;28;20059;-65
2023/10/23 10:20:47;;;;;;;10.02;6.10;;;12.50;99.90;;;;;;5031396;28;20037;-65
2023/10/23 10:23:15;;;;;;;7.32;5.00;;;12.60;99.90;;;;;;5033393;28;20084;-65
2023/10/23 10:25:48;;;;;;;11.50;5.75;;;12.60;99.90;;;;;;5050035;28;20037;-65
2023/10/23 10:28:14;;;;;;;8.50;4.70;;;12.70;99.90;;;;;;5039104;28;20483;-65
2023/10/23 10:30:45;;;;;;;7.32;4.30;;;12.80;99.90;;;;;;5040125;28;20127;-65
2023/10/23 10:33:26;;;;;;;7.72;4.65;;;12.90;99.90;;;;;;5026593;28;20460;-65
2023/10/23 10:35:55;;;;;;;;;;;12.90;99.90;;;;;;5048640;28;20044;-65
2023/10/23 10:38:23;;;;;;;7.87;3.50;;;13.00;99.90;;;;;;5057956;28;20504;-65
2023/10/23 10:40:56;;;;;;;7.43;3.08;;;13.00;99.90;;;;;;5046468;28;20048;-64
2023/10/23 10:43:33;;;;;;;8.52;4.35;;;13.10;99.90;;;;;;5042655;28;20056;-65
2023/10/23 10:46:05;;;;;;;6.88;3.90;;;13.20;99.90;;;;;;5020398;28;20060;-65
2023/10/23 10:48:45;;;;;;;6.70;3.50;;;13.30;99.90;;;;;;5062478;28;20056;-65
2023/10/23 10:51:22;;;;;;;4.53;3.55;;;13.40;99.90;;;;;;5061535;28;20693;-65
2023/10/23 10:54:00;;;;;;;5.30;3.63;;;13.50;99.90;;;;;;5063333;28;20044;-65
2023/10/23 10:56:26;;;;;;;4.10;2.92;;;13.70;99.90;;;;;;5053167;28;20059;-65
2023/10/23 10:58:52;;;;;;;6.95;3.83;;;13.80;99.90;;;;;;5044431;28;20135;-65
2023/10/23 11:01:22;;;;;;;7.05;3.47;;;13.90;99.90;;;;;;5030278;28;20236;-64
2023/10/23 11:03:48;;;;;;;5.43;3.10;;;14.00;99.90;;;;;;5045917;28;20068;-65
2023/10/23 11:06:14;;;;;;;6.45;2.70;;;14.00;99.90;;;;;;5047381;28;20126;-64
2023/10/23 11:08:40;;;;;;;3.72;2.47;;;14.10;99.90;;;;;;5038655;28;20045;-65
2023/10/23 11:11:06;;;;;;;7.50;2.50;;;14.10;99.90;;;;;;5023570;28;20454;-65
2023/10/23 11:13:33;;;;;;;4.25;2.20;;;14.20;99.90;;;;;;5066603;28;20040;-64
2023/10/23 11:15:59;;;;;;;3.55;2.10;;;14.20;99.90;;;;;;5048014;28;20037;-65
2023/10/23 11:18:25;;;;;;;2.38;1.88;;;14.20;99.90;;;;;;5049438;28;20068;-64
2023/10/23 11:20:57;;;;;;;2.90;1.73;;;14.30;99.90;;;;;;5045227;28;20044;-64
2023/10/23 11:23:23;;;;;;;2.92;1.92;;;14.30;99.90;;;;;;5036303;28;20139;-65
2023/10/23 11:25:49;;;;;;;3.58;1.92;;;14.30;99.90;;;;;;5058121;28;20457;-64
2023/10/23 11:28:18;;;;;;;11.57;1.33;;;14.30;99.90;;;;;;5046477;28;20092;-65
2023/10/23 11:30:46;;;;;;;2.75;1.80;;;14.30;99.90;;;;;;5045867;28;20118;-65
2023/10/23 11:33:13;;;;;;;3.30;2.13;;;14.40;99.90;;;;;;5061107;28;20087;-65
2023/10/23 11:35:40;;;;;;;3.25;1.70;;;14.40;99.90;;;;;;5046693;28;20037;-65
2023/10/23 11:38:18;;;;;;;4.32;2.35;;;14.40;99.90;;;;;;5029163;28;20081;-65
2023/10/23 11:40:45;;;;;;;6.55;2.05;;;14.40;99.90;;;;;;5037392;28;20072;-65
2023/10/23 11:43:13;;;;;;;4.45;1.90;;;14.40;99.90;;;;;;5028880;28;20045;-64
2023/10/23 11:45:40;;;;;;;1.67;1.58;;;14.40;99.90;;;;;;5046367;28;20052;-65
2023/10/23 11:48:07;;;;;;;2.08;1.58;;;14.40;99.90;;;;;;5044599;28;20609;-64
2023/10/23 11:50:37;;;;;;;1.83;1.60;;;14.40;99.90;;;;;;5040202;28;20037;-65
2023/10/23 11:53:06;;;;;;;2.15;1.60;;;14.40;99.90;;;;;;5029984;28;20037;-64
2023/10/23 11:55:33;;;;;;;6.47;2.35;;;14.40;99.90;;;;;;5045223;28;20402;-65
2023/10/23 11:58:01;;;;;;;6.30;2.88;;;14.60;99.90;;;;;;5046623;28;20041;-65
2023/10/23 12:00:32;;;;;;;5.82;3.10;;;14.50;99.90;;;;;;5012217;28;20112;-64
2023/10/23 12:02:58;;;;;;;6.35;3.17;;;14.60;99.90;;;;;;5054054;28;20041;-65
2023/10/23 12:05:24;;;;;;;4.80;3.58;;;14.60;99.90;;;;;;5001316;28;20102;-64
2023/10/23 12:07:55;;;;;;;4.47;3.60;;;14.70;99.90;;;;;;5039651;28;20501;-65
2023/10/23 12:10:22;;;;;;;3.88;3.30;;;14.70;99.90;;;;;;5053662;28;20064;-64
2023/10/23 12:12:52;;;;;;;3.30;3.00;;;14.70;99.90;;;;;;5048787;28;20498;-65
2023/10/23 12:15:17;;;;;;;4.20;3.20;;;14.70;99.90;;;;;;5020364;28;20555;-64
2023/10/23 12:17:43;;;;;;;4.22;2.70;;;14.70;99.90;;;;;;5050754;28;20048;-65
2023/10/23 12:20:14;;;;;;;4.47;2.53;;;14.80;99.90;;;;;;5070805;28;20087;-65
2023/10/23 12:22:44;;;;;;;5.22;2.50;;;14.80;99.90;;;;;;5069361;28;20506;-64
2023/10/23 12:25:12;;;;;;;3.60;3.30;;;14.80;99.90;;;;;;5037722;28;20446;-65
2023/10/23 12:27:39;;;;;;;5.18;2.70;;;14.80;99.90;;;;;;5065214;28;20040;-65
2023/10/23 12:30:06;;;;;;;2.90;2.70;;;14.80;99.90;;;;;;5068515;28;20205;-65
2023/10/23 12:32:34;;;;;;;3.70;2.50;;;14.80;99.90;;;;;;5039502;28;20483;-65
2023/10/23 12:35:03;;;;;;;5.00;2.90;;;14.70;99.90;;;;;;5057922;28;20037;-64
2023/10/23 12:37:30;;;;;;;3.92;2.90;;;14.70;99.90;;;;;;5052261;28;20546;-64
2023/10/23 12:39:58;;;;;;;3.35;2.65;;;14.70;99.90;;;;;;5049805;28;20064;-64
2023/10/23 12:42:24;;;;;;;5.20;2.40;;;14.60;99.90;;;;;;5069348;28;20049;-64
2023/10/23 12:44:54;;;;;;;4.05;2.15;;;14.60;99.90;;;;;;5050260;28;20044;-65
2023/10/23 12:47:20;;;;;;;1.98;1.88;;;14.50;99.90;;;;;;5068459;28;20056;-65
2023/10/23 12:49:46;;;;;;;3.10;2.00;;;14.40;99.90;;;;;;5066493;28;20040;-65
2023/10/23 12:52:12;;;;;;;4.70;3.10;;;14.30;99.90;;;;;;5059590;28;20060;-65
2023/10/23 12:54:38;;;;;;;4.78;3.72;;;14.20;99.90;;;;;;5036941;28;20051;-65